createdAt,value
2017-08-26T00:00:11.161Z,0
2017-08-26T00:00:51.698Z,0
2017-08-26T00:01:32.240Z,0
2017-08-26T00:02:12.776Z,0
2017-08-26T00:02:53.301Z,0
2017-08-26T00:03:33.842Z,0
2017-08-26T00:04:14.377Z,0
2017-08-26T00:04:54.916Z,0
2017-08-26T00:05:35.463Z,0
2017-08-26T00:06:16.000Z,0
2017-08-26T00:06:56.537Z,0
2017-08-26T00:07:37.082Z,0
2017-08-26T00:08:17.620Z,0
2017-08-26T00:08:58.160Z,0
2017-08-26T00:09:38.701Z,0
2017-08-26T00:10:19.239Z,0
2017-08-26T00:10:59.777Z,0
2017-08-26T00:11:40.314Z,0
2017-08-26T00:12:20.856Z,0
2017-08-26T00:13:01.396Z,0
2017-08-26T00:13:41.937Z,0
2017-08-26T00:14:22.475Z,0
2017-08-26T00:15:03.019Z,0
2017-08-26T00:15:43.555Z,0
2017-08-26T00:16:24.097Z,0
2017-08-26T00:17:04.633Z,0
2017-08-26T00:17:45.171Z,0
2017-08-26T00:18:25.706Z,0
2017-08-26T00:19:06.247Z,0
2017-08-26T00:19:46.779Z,0
2017-08-26T00:20:27.320Z,0
2017-08-26T00:21:07.859Z,0
2017-08-26T00:21:48.394Z,0
2017-08-26T00:22:28.941Z,0
2017-08-26T00:23:09.478Z,0
2017-08-26T00:23:50.018Z,0
2017-08-26T00:24:30.558Z,0
2017-08-26T00:25:11.115Z,0
2017-08-26T00:25:51.647Z,0
2017-08-26T00:26:32.184Z,0
2017-08-26T00:27:12.730Z,0
2017-08-26T00:27:53.267Z,0
2017-08-26T00:28:33.803Z,0
2017-08-26T00:29:14.325Z,0
2017-08-26T00:29:54.861Z,0
2017-08-26T00:30:35.401Z,0
2017-08-26T00:31:15.938Z,0
2017-08-26T00:31:56.478Z,0
2017-08-26T00:32:37.035Z,0
2017-08-26T00:33:17.557Z,0
2017-08-26T00:33:58.091Z,0
2017-08-26T00:34:38.628Z,0
2017-08-26T00:35:19.168Z,0
2017-08-26T00:35:59.705Z,0
2017-08-26T00:36:40.245Z,0
2017-08-26T00:37:20.785Z,0
2017-08-26T00:38:01.326Z,0
2017-08-26T00:38:41.860Z,0
2017-08-26T00:39:22.396Z,0
2017-08-26T00:40:02.934Z,0
2017-08-26T00:40:43.485Z,0
2017-08-26T00:41:24.028Z,0
2017-08-26T00:42:04.562Z,0
2017-08-26T00:42:45.100Z,0
2017-08-26T00:43:25.639Z,0
2017-08-26T00:44:06.184Z,0
2017-08-26T00:44:46.721Z,0
2017-08-26T00:45:27.252Z,0
2017-08-26T00:46:07.789Z,0
2017-08-26T00:46:48.326Z,0
2017-08-26T00:47:28.860Z,0
2017-08-26T00:48:09.404Z,0
2017-08-26T00:48:49.945Z,0
2017-08-26T00:49:30.484Z,0
2017-08-26T00:50:11.027Z,0
2017-08-26T00:50:51.568Z,0
2017-08-26T00:51:32.104Z,0
2017-08-26T00:52:12.643Z,0
2017-08-26T00:52:53.177Z,0
2017-08-26T00:53:33.721Z,0
2017-08-26T00:54:14.267Z,0
2017-08-26T00:54:54.799Z,0
2017-08-26T00:55:35.330Z,0
2017-08-26T00:56:15.868Z,0
2017-08-26T00:56:56.393Z,0
2017-08-26T00:57:36.932Z,0
2017-08-26T00:58:17.477Z,0
2017-08-26T00:58:58.030Z,0
2017-08-26T00:59:38.568Z,0
2017-08-26T01:00:19.135Z,0
2017-08-26T01:00:59.666Z,0
2017-08-26T01:01:40.206Z,0
2017-08-26T01:02:20.748Z,0
2017-08-26T01:03:01.278Z,0
2017-08-26T01:03:41.807Z,0
2017-08-26T01:04:22.342Z,0
2017-08-26T01:05:02.882Z,0
2017-08-26T01:05:43.421Z,0
2017-08-26T01:06:23.962Z,0
2017-08-26T01:07:04.482Z,0
2017-08-26T01:07:45.016Z,0
2017-08-26T01:08:25.557Z,0
2017-08-26T01:09:06.093Z,0
2017-08-26T01:09:46.630Z,0
2017-08-26T01:10:27.171Z,0
2017-08-26T01:11:07.707Z,0
2017-08-26T01:11:48.234Z,0
2017-08-26T01:12:28.771Z,0
2017-08-26T01:13:09.299Z,0
2017-08-26T01:13:49.851Z,0
2017-08-26T01:14:30.392Z,0
2017-08-26T01:15:10.931Z,0
2017-08-26T01:15:51.469Z,0
2017-08-26T01:16:32.009Z,0
2017-08-26T01:17:12.559Z,0
2017-08-26T01:17:53.072Z,0
2017-08-26T01:18:33.618Z,0
2017-08-26T01:19:14.159Z,0
2017-08-26T01:19:54.696Z,0
2017-08-26T01:20:35.237Z,0
2017-08-26T01:21:15.775Z,0
2017-08-26T01:21:56.316Z,0
2017-08-26T01:22:36.858Z,0
2017-08-26T01:23:17.395Z,0
2017-08-26T01:23:57.932Z,0
2017-08-26T01:24:38.474Z,0
2017-08-26T01:25:19.014Z,0
2017-08-26T01:25:59.551Z,0
2017-08-26T01:26:40.092Z,0
2017-08-26T01:27:20.636Z,0
2017-08-26T01:28:01.182Z,0
2017-08-26T01:28:41.720Z,0
2017-08-26T01:29:22.254Z,0
2017-08-26T01:30:02.790Z,0
2017-08-26T01:30:43.329Z,0
2017-08-26T01:31:23.871Z,0
2017-08-26T01:32:04.409Z,0
2017-08-26T01:32:44.944Z,0
2017-08-26T01:33:25.531Z,0
2017-08-26T01:34:06.057Z,0
2017-08-26T01:34:46.598Z,0
2017-08-26T01:35:27.140Z,0
2017-08-26T01:36:07.679Z,0
2017-08-26T01:36:48.213Z,0
2017-08-26T01:37:28.749Z,0
2017-08-26T01:38:09.286Z,0
2017-08-26T01:38:49.822Z,0
2017-08-26T01:39:30.366Z,0
2017-08-26T01:40:10.901Z,0
2017-08-26T01:40:51.441Z,0
2017-08-26T01:41:31.983Z,0
2017-08-26T01:42:12.520Z,0
2017-08-26T01:42:53.057Z,0
2017-08-26T01:43:33.594Z,0
2017-08-26T01:44:14.132Z,0
2017-08-26T01:44:54.669Z,0
2017-08-26T01:45:35.212Z,0
2017-08-26T01:46:15.748Z,0
2017-08-26T01:46:56.289Z,0
2017-08-26T01:47:36.828Z,0
2017-08-26T01:48:17.368Z,0
2017-08-26T01:48:57.906Z,0
2017-08-26T01:49:38.429Z,0
2017-08-26T01:50:18.964Z,0
2017-08-26T01:50:59.513Z,0
2017-08-26T01:51:40.045Z,0
2017-08-26T01:52:20.585Z,0
2017-08-26T01:53:01.124Z,0
2017-08-26T01:53:41.658Z,0
2017-08-26T01:54:22.194Z,0
2017-08-26T01:55:02.731Z,0
2017-08-26T01:55:43.267Z,0
2017-08-26T01:56:23.810Z,0
2017-08-26T01:57:04.349Z,0
2017-08-26T01:57:44.889Z,0
2017-08-26T01:58:25.429Z,0
2017-08-26T01:59:05.967Z,0
2017-08-26T01:59:46.506Z,0
2017-08-26T02:00:27.044Z,0
2017-08-26T02:01:07.587Z,0
2017-08-26T02:01:48.124Z,0
2017-08-26T02:02:28.664Z,0
2017-08-26T02:03:09.203Z,0
2017-08-26T02:03:49.742Z,0
2017-08-26T02:04:30.282Z,0
2017-08-26T02:05:10.818Z,0
2017-08-26T02:05:51.356Z,0
2017-08-26T02:06:31.890Z,0
2017-08-26T02:07:12.427Z,0
2017-08-26T02:07:52.966Z,0
2017-08-26T02:08:33.510Z,0
2017-08-26T02:09:14.044Z,0
2017-08-26T02:09:54.574Z,0
2017-08-26T02:10:35.116Z,0
2017-08-26T02:11:15.651Z,0
2017-08-26T02:11:56.193Z,0
2017-08-26T02:12:36.732Z,0
2017-08-26T02:13:17.266Z,0
2017-08-26T02:13:57.813Z,0
2017-08-26T02:14:38.353Z,0
2017-08-26T02:15:18.893Z,0
2017-08-26T02:15:59.431Z,0
2017-08-26T02:16:39.964Z,0
2017-08-26T02:17:20.500Z,0
2017-08-26T02:18:01.027Z,0
2017-08-26T02:18:41.566Z,0
2017-08-26T02:19:22.104Z,0
2017-08-26T02:20:02.636Z,0
2017-08-26T02:20:43.169Z,0
2017-08-26T02:21:23.705Z,0
2017-08-26T02:22:04.240Z,0
2017-08-26T02:22:44.781Z,0
2017-08-26T02:23:25.322Z,0
2017-08-26T02:24:05.862Z,0
2017-08-26T02:24:46.400Z,0
2017-08-26T02:25:26.941Z,0
2017-08-26T02:26:07.481Z,0
2017-08-26T02:26:48.018Z,0
2017-08-26T02:27:28.559Z,0
2017-08-26T02:28:09.091Z,0
2017-08-26T02:28:49.626Z,0
2017-08-26T02:29:30.163Z,0
2017-08-26T02:30:10.685Z,0
2017-08-26T02:30:51.225Z,0
2017-08-26T02:31:31.772Z,0
2017-08-26T02:32:12.312Z,0
2017-08-26T02:32:52.848Z,0
2017-08-26T02:33:33.394Z,0
2017-08-26T02:34:13.910Z,0
2017-08-26T02:34:54.443Z,0
2017-08-26T02:35:34.960Z,0
2017-08-26T02:36:15.497Z,0
2017-08-26T02:36:56.031Z,0
2017-08-26T02:37:36.570Z,0
2017-08-26T02:38:17.110Z,0
2017-08-26T02:38:57.647Z,0
2017-08-26T02:39:38.189Z,0
2017-08-26T02:40:18.727Z,0
2017-08-26T02:40:59.268Z,0
2017-08-26T02:41:39.806Z,0
2017-08-26T02:42:20.350Z,0
2017-08-26T02:43:00.888Z,0
2017-08-26T02:43:41.439Z,0
2017-08-26T02:44:21.970Z,0
2017-08-26T02:45:02.504Z,0
2017-08-26T02:45:50.850Z,0
2017-08-26T02:46:31.388Z,0
2017-08-26T02:47:11.929Z,0
2017-08-26T02:47:52.462Z,0
2017-08-26T02:48:33.003Z,0
2017-08-26T02:49:13.549Z,0
2017-08-26T02:49:54.089Z,0
2017-08-26T02:50:34.634Z,0
2017-08-26T02:51:15.153Z,0
2017-08-26T02:51:55.686Z,0
2017-08-26T02:52:36.225Z,0
2017-08-26T02:53:16.762Z,0
2017-08-26T02:53:57.297Z,0
2017-08-26T02:54:37.833Z,0
2017-08-26T02:55:18.373Z,0
2017-08-26T02:55:58.911Z,0
2017-08-26T02:56:39.450Z,0
2017-08-26T02:57:19.989Z,0
2017-08-26T02:58:00.531Z,0
2017-08-26T02:58:41.072Z,0
2017-08-26T02:59:21.610Z,0
2017-08-26T03:00:02.151Z,0
2017-08-26T03:00:42.687Z,0
2017-08-26T03:01:23.242Z,0
2017-08-26T03:02:03.782Z,0
2017-08-26T03:02:44.322Z,0
2017-08-26T03:03:24.866Z,0
2017-08-26T03:04:05.408Z,0
2017-08-26T03:04:45.946Z,0
2017-08-26T03:05:26.472Z,0
2017-08-26T03:06:07.031Z,0
2017-08-26T03:06:47.566Z,0
2017-08-26T03:07:28.106Z,0
2017-08-26T03:08:08.642Z,0
2017-08-26T03:08:49.183Z,0
2017-08-26T03:09:29.724Z,0
2017-08-26T03:10:10.263Z,0
2017-08-26T03:10:50.800Z,0
2017-08-26T03:11:31.381Z,0
2017-08-26T03:12:11.915Z,0
2017-08-26T03:12:52.450Z,0
2017-08-26T03:13:32.987Z,0
2017-08-26T03:14:13.529Z,0
2017-08-26T03:14:54.057Z,0
2017-08-26T03:15:34.593Z,0
2017-08-26T03:16:15.135Z,0
2017-08-26T03:16:55.671Z,0
2017-08-26T03:17:36.210Z,0
2017-08-26T03:18:16.746Z,0
2017-08-26T03:18:57.287Z,0
2017-08-26T03:19:37.826Z,0
2017-08-26T03:20:18.370Z,0
2017-08-26T03:20:58.905Z,0
2017-08-26T03:21:39.433Z,0
2017-08-26T03:22:19.973Z,0
2017-08-26T03:23:00.514Z,0
2017-08-26T03:23:41.055Z,0
2017-08-26T03:24:21.591Z,0
2017-08-26T03:25:02.131Z,0
2017-08-26T03:25:42.670Z,0
2017-08-26T03:26:23.209Z,0
2017-08-26T03:27:03.748Z,0
2017-08-26T03:27:44.281Z,0
2017-08-26T03:28:24.821Z,0
2017-08-26T03:29:05.360Z,0
2017-08-26T03:29:45.892Z,0
2017-08-26T03:30:26.440Z,0
2017-08-26T03:31:06.981Z,0
2017-08-26T03:31:47.519Z,0
2017-08-26T03:32:28.058Z,0
2017-08-26T03:33:08.596Z,0
2017-08-26T03:33:49.137Z,0
2017-08-26T03:34:29.667Z,0
2017-08-26T03:35:10.206Z,0
2017-08-26T03:35:50.745Z,0
2017-08-26T03:36:31.284Z,0
2017-08-26T03:37:11.823Z,0
2017-08-26T03:37:52.363Z,0
2017-08-26T03:38:32.888Z,0
2017-08-26T03:39:13.423Z,0
2017-08-26T03:39:53.962Z,0
2017-08-26T03:40:34.503Z,0
2017-08-26T03:41:15.029Z,0
2017-08-26T03:41:55.601Z,0
2017-08-26T03:42:36.117Z,0
2017-08-26T03:43:16.658Z,0
2017-08-26T03:43:57.201Z,0
2017-08-26T03:44:37.739Z,0
2017-08-26T03:45:18.283Z,0
2017-08-26T03:45:58.824Z,0
2017-08-26T03:46:39.363Z,0
2017-08-26T03:47:19.901Z,0
2017-08-26T03:48:00.443Z,0
2017-08-26T03:48:40.972Z,0
2017-08-26T03:49:21.569Z,0
2017-08-26T03:50:02.106Z,0
2017-08-26T03:50:42.641Z,0
2017-08-26T03:51:23.182Z,0
2017-08-26T03:52:03.724Z,0
2017-08-26T03:52:44.265Z,0
2017-08-26T03:53:24.802Z,0
2017-08-26T03:54:05.337Z,0
2017-08-26T03:54:45.882Z,0
2017-08-26T03:55:26.422Z,0
2017-08-26T03:56:06.960Z,0
2017-08-26T03:56:47.504Z,0
2017-08-26T03:57:28.045Z,0
2017-08-26T03:58:08.589Z,0
2017-08-26T03:58:49.110Z,0
2017-08-26T03:59:29.725Z,0
2017-08-26T04:00:10.280Z,0
2017-08-26T04:00:50.816Z,0
2017-08-26T04:01:31.354Z,0
2017-08-26T04:02:11.895Z,0
2017-08-26T04:02:52.427Z,0
2017-08-26T04:03:32.996Z,0
2017-08-26T04:04:13.539Z,0
2017-08-26T04:04:54.077Z,0
2017-08-26T04:05:34.611Z,0
2017-08-26T04:06:15.150Z,0
2017-08-26T04:06:55.689Z,0
2017-08-26T04:07:36.230Z,0
2017-08-26T04:08:16.772Z,0
2017-08-26T04:08:57.309Z,0
2017-08-26T04:09:37.857Z,0
2017-08-26T04:10:18.397Z,0
2017-08-26T04:10:58.940Z,0
2017-08-26T04:11:39.478Z,0
2017-08-26T04:12:20.022Z,0
2017-08-26T04:13:00.557Z,0
2017-08-26T04:13:41.096Z,0
2017-08-26T04:14:21.637Z,0
2017-08-26T04:15:02.168Z,0
2017-08-26T04:15:42.711Z,0
2017-08-26T04:16:23.255Z,0
2017-08-26T04:17:03.793Z,0
2017-08-26T04:17:44.328Z,0
2017-08-26T04:18:24.864Z,0
2017-08-26T04:19:05.389Z,0
2017-08-26T04:19:45.936Z,0
2017-08-26T04:20:26.470Z,0
2017-08-26T04:21:07.014Z,0
2017-08-26T04:21:47.570Z,0
2017-08-26T04:22:28.178Z,0
2017-08-26T04:23:08.844Z,0
2017-08-26T04:23:49.383Z,0
2017-08-26T04:24:29.922Z,0
2017-08-26T04:25:10.459Z,0
2017-08-26T04:25:51.042Z,0
2017-08-26T04:26:31.583Z,0
2017-08-26T04:27:12.113Z,0
2017-08-26T04:27:52.649Z,0
2017-08-26T04:28:33.193Z,0
2017-08-26T04:29:13.738Z,0
2017-08-26T04:29:54.282Z,0
2017-08-26T04:30:34.816Z,0
2017-08-26T04:31:15.361Z,0
2017-08-26T04:31:55.892Z,0
2017-08-26T04:32:36.431Z,0
2017-08-26T04:33:16.967Z,0
2017-08-26T04:33:57.505Z,0
2017-08-26T04:34:38.044Z,0
2017-08-26T04:35:18.584Z,0
2017-08-26T04:35:59.113Z,0
2017-08-26T04:36:39.648Z,0
2017-08-26T04:37:20.184Z,0
2017-08-26T04:38:00.710Z,0
2017-08-26T04:38:41.261Z,0
2017-08-26T04:39:21.802Z,0
2017-08-26T04:40:02.340Z,0
2017-08-26T04:40:42.880Z,0
2017-08-26T04:41:23.413Z,0
2017-08-26T04:42:03.955Z,0
2017-08-26T04:42:44.498Z,0
2017-08-26T04:43:25.123Z,0
2017-08-26T04:44:05.665Z,0
2017-08-26T04:44:46.204Z,0
2017-08-26T04:45:26.747Z,0
2017-08-26T04:46:07.286Z,0
2017-08-26T04:46:47.825Z,0
2017-08-26T04:47:28.370Z,0
2017-08-26T04:48:08.905Z,0
2017-08-26T04:48:49.447Z,0
2017-08-26T04:49:29.979Z,5
2017-08-26T04:50:10.522Z,5
2017-08-26T04:50:51.052Z,5
2017-08-26T04:51:31.590Z,5
2017-08-26T04:52:12.122Z,5
2017-08-26T04:52:52.660Z,5
2017-08-26T04:53:33.203Z,5
2017-08-26T04:54:13.737Z,5
2017-08-26T04:54:54.279Z,5
2017-08-26T04:55:34.826Z,5
2017-08-26T04:56:15.368Z,5
2017-08-26T04:56:55.907Z,5
2017-08-26T04:57:36.450Z,5
2017-08-26T04:58:16.978Z,5
2017-08-26T04:58:57.515Z,10
2017-08-26T04:59:38.058Z,10
2017-08-26T05:00:18.599Z,5
2017-08-26T05:00:59.138Z,5
2017-08-26T05:01:39.683Z,5
2017-08-26T05:02:20.225Z,10
2017-08-26T05:03:00.766Z,10
2017-08-26T05:03:41.373Z,10
2017-08-26T05:04:21.905Z,10
2017-08-26T05:05:02.437Z,15
2017-08-26T05:05:42.981Z,15
2017-08-26T05:06:23.517Z,15
2017-08-26T05:07:04.058Z,15
2017-08-26T05:07:44.592Z,15
2017-08-26T05:08:25.154Z,15
2017-08-26T05:09:05.687Z,15
2017-08-26T05:09:46.254Z,15
2017-08-26T05:10:26.811Z,15
2017-08-26T05:11:07.354Z,15
2017-08-26T05:11:47.887Z,20
2017-08-26T05:12:28.424Z,20
2017-08-26T05:13:08.987Z,20
2017-08-26T05:13:49.506Z,20
2017-08-26T05:14:30.064Z,25
2017-08-26T05:15:10.601Z,25
2017-08-26T05:15:51.143Z,20
2017-08-26T05:16:31.683Z,20
2017-08-26T05:17:12.208Z,20
2017-08-26T05:17:52.746Z,20
2017-08-26T05:18:33.286Z,20
2017-08-26T05:19:13.824Z,20
2017-08-26T05:19:54.366Z,25
2017-08-26T05:20:34.904Z,25
2017-08-26T05:21:15.435Z,25
2017-08-26T05:21:55.955Z,25
2017-08-26T05:22:36.490Z,25
2017-08-26T05:23:17.034Z,25
2017-08-26T05:23:57.569Z,25
2017-08-26T05:24:38.107Z,25
2017-08-26T05:25:18.645Z,25
2017-08-26T05:25:59.187Z,25
2017-08-26T05:26:39.723Z,25
2017-08-26T05:27:20.261Z,25
2017-08-26T05:28:00.810Z,25
2017-08-26T05:28:41.346Z,25
2017-08-26T05:29:21.888Z,30
2017-08-26T05:30:02.432Z,30
2017-08-26T05:30:42.955Z,30
2017-08-26T05:31:23.506Z,30
2017-08-26T05:32:04.033Z,35
2017-08-26T05:32:44.580Z,35
2017-08-26T05:33:25.113Z,35
2017-08-26T05:34:05.651Z,40
2017-08-26T05:34:46.188Z,40
2017-08-26T05:35:26.734Z,35
2017-08-26T05:36:07.313Z,35
2017-08-26T05:36:47.857Z,35
2017-08-26T05:37:28.398Z,35
2017-08-26T05:38:08.939Z,35
2017-08-26T05:38:49.473Z,35
2017-08-26T05:39:30.092Z,35
2017-08-26T05:40:10.622Z,40
2017-08-26T05:40:51.162Z,45
2017-08-26T05:41:31.700Z,50
2017-08-26T05:42:12.240Z,50
2017-08-26T05:42:53.287Z,55
2017-08-26T05:43:33.830Z,55
2017-08-26T05:44:14.368Z,60
2017-08-26T05:44:54.901Z,60
2017-08-26T05:45:35.429Z,65
2017-08-26T05:46:15.986Z,65
2017-08-26T05:46:56.684Z,70
2017-08-26T05:47:37.252Z,70
2017-08-26T05:48:17.798Z,70
2017-08-26T05:48:58.405Z,75
2017-08-26T05:49:38.938Z,75
2017-08-26T05:50:19.478Z,75
2017-08-26T05:51:00.016Z,75
2017-08-26T05:51:40.557Z,75
2017-08-26T05:52:21.095Z,80
2017-08-26T05:53:01.635Z,80
2017-08-26T05:53:42.173Z,80
2017-08-26T05:54:22.703Z,80
2017-08-26T05:55:03.243Z,85
2017-08-26T05:55:44.465Z,85
2017-08-26T05:56:25.005Z,85
2017-08-26T05:57:05.552Z,85
2017-08-26T05:57:46.094Z,85
2017-08-26T05:58:26.634Z,85
2017-08-26T05:59:07.229Z,85
2017-08-26T05:59:47.773Z,85
2017-08-26T06:00:28.309Z,85
2017-08-26T06:01:08.834Z,90
2017-08-26T06:01:49.370Z,90
2017-08-26T06:02:29.908Z,95
2017-08-26T06:03:10.445Z,100
2017-08-26T06:03:50.975Z,105
2017-08-26T06:04:31.518Z,110
2017-08-26T06:05:12.061Z,110
2017-08-26T06:05:52.600Z,115
2017-08-26T06:06:33.135Z,115
2017-08-26T06:07:13.704Z,110
2017-08-26T06:07:54.237Z,110
2017-08-26T06:08:34.770Z,110
2017-08-26T06:09:15.308Z,110
2017-08-26T06:09:55.844Z,110
2017-08-26T06:10:36.384Z,120
2017-08-26T06:11:16.926Z,120
2017-08-26T06:11:57.482Z,120
2017-08-26T06:12:38.019Z,115
2017-08-26T06:13:18.561Z,115
2017-08-26T06:13:59.100Z,110
2017-08-26T06:14:39.639Z,110
2017-08-26T06:15:20.177Z,110
2017-08-26T06:16:00.722Z,115
2017-08-26T06:16:41.261Z,115
2017-08-26T06:17:21.808Z,120
2017-08-26T06:18:02.435Z,120
2017-08-26T06:18:43.001Z,120
2017-08-26T06:19:23.547Z,120
2017-08-26T06:20:04.130Z,120
2017-08-26T06:20:44.664Z,120
2017-08-26T06:21:25.208Z,120
2017-08-26T06:22:05.752Z,120
2017-08-26T06:22:46.287Z,125
2017-08-26T06:23:26.837Z,125
2017-08-26T06:24:07.369Z,125
2017-08-26T06:24:47.905Z,125
2017-08-26T06:25:28.444Z,125
2017-08-26T06:26:08.976Z,130
2017-08-26T06:26:49.520Z,130
2017-08-26T06:27:30.059Z,130
2017-08-26T06:28:10.602Z,130
2017-08-26T06:28:51.140Z,135
2017-08-26T06:29:31.680Z,135
2017-08-26T06:30:12.220Z,140
2017-08-26T06:30:52.760Z,140
2017-08-26T06:31:33.299Z,145
2017-08-26T06:32:13.840Z,145
2017-08-26T06:32:54.369Z,145
2017-08-26T06:33:34.914Z,145
2017-08-26T06:34:15.465Z,150
2017-08-26T06:34:58.067Z,150
2017-08-26T06:35:38.616Z,150
2017-08-26T06:36:19.152Z,150
2017-08-26T06:36:59.695Z,155
2017-08-26T06:37:40.229Z,155
2017-08-26T06:38:20.768Z,155
2017-08-26T06:39:01.304Z,155
2017-08-26T06:39:41.844Z,155
2017-08-26T06:40:22.382Z,155
2017-08-26T06:41:02.917Z,155
2017-08-26T06:41:43.452Z,160
2017-08-26T06:42:23.997Z,160
2017-08-26T06:43:04.527Z,160
2017-08-26T06:43:45.061Z,165
2017-08-26T06:44:25.600Z,165
2017-08-26T06:45:06.140Z,165
2017-08-26T06:45:46.675Z,170
2017-08-26T06:46:27.224Z,170
2017-08-26T06:47:07.767Z,170
2017-08-26T06:47:48.326Z,175
2017-08-26T06:48:28.858Z,175
2017-08-26T06:49:09.405Z,175
2017-08-26T06:49:49.944Z,180
2017-08-26T06:50:30.565Z,180
2017-08-26T06:51:11.139Z,185
2017-08-26T06:51:51.807Z,185
2017-08-26T06:52:32.339Z,185
2017-08-26T06:53:12.881Z,190
2017-08-26T06:53:53.424Z,190
2017-08-26T06:54:33.957Z,190
2017-08-26T06:55:14.494Z,195
2017-08-26T06:55:55.046Z,195
2017-08-26T06:56:35.590Z,195
2017-08-26T06:57:16.135Z,205
2017-08-26T06:57:56.662Z,205
2017-08-26T06:58:37.249Z,205
2017-08-26T06:59:17.795Z,210
2017-08-26T06:59:58.372Z,210
2017-08-26T07:00:38.912Z,210
2017-08-26T07:01:19.504Z,215
2017-08-26T07:02:00.055Z,215
2017-08-26T07:02:40.591Z,220
2017-08-26T07:03:21.129Z,220
2017-08-26T07:04:01.657Z,220
2017-08-26T07:04:42.313Z,220
2017-08-26T07:05:22.855Z,220
2017-08-26T07:06:03.389Z,225
2017-08-26T07:06:43.916Z,225
2017-08-26T07:07:24.454Z,225
2017-08-26T07:08:04.995Z,225
2017-08-26T07:08:45.536Z,230
2017-08-26T07:09:26.075Z,235
2017-08-26T07:10:06.621Z,240
2017-08-26T07:10:47.161Z,240
2017-08-26T07:11:27.692Z,245
2017-08-26T07:12:08.247Z,250
2017-08-26T07:12:48.794Z,255
2017-08-26T07:13:29.327Z,260
2017-08-26T07:14:09.874Z,260
2017-08-26T07:14:50.402Z,265
2017-08-26T07:15:30.953Z,270
2017-08-26T07:16:11.495Z,275
2017-08-26T07:16:52.022Z,285
2017-08-26T07:17:32.756Z,295
2017-08-26T07:18:13.334Z,300
2017-08-26T07:18:53.882Z,300
2017-08-26T07:19:34.440Z,305
2017-08-26T07:20:14.975Z,295
2017-08-26T07:20:55.509Z,290
2017-08-26T07:21:36.055Z,285
2017-08-26T07:22:16.586Z,290
2017-08-26T07:22:57.102Z,290
2017-08-26T07:23:37.628Z,300
2017-08-26T07:24:18.167Z,295
2017-08-26T07:24:58.707Z,295
2017-08-26T07:25:39.262Z,290
2017-08-26T07:26:19.810Z,290
2017-08-26T07:27:00.360Z,290
2017-08-26T07:27:40.887Z,290
2017-08-26T07:28:21.414Z,295
2017-08-26T07:29:01.934Z,310
2017-08-26T07:29:42.475Z,320
2017-08-26T07:30:23.011Z,325
2017-08-26T07:31:03.573Z,325
2017-08-26T07:31:44.106Z,320
2017-08-26T07:32:24.631Z,325
2017-08-26T07:33:05.165Z,320
2017-08-26T07:33:45.705Z,325
2017-08-26T07:34:26.248Z,325
2017-08-26T07:35:06.787Z,325
2017-08-26T07:35:47.338Z,325
2017-08-26T07:36:27.870Z,320
2017-08-26T07:37:08.406Z,325
2017-08-26T07:37:48.947Z,325
2017-08-26T07:38:29.486Z,330
2017-08-26T07:39:10.042Z,335
2017-08-26T07:39:50.581Z,335
2017-08-26T07:40:31.119Z,350
2017-08-26T07:41:11.649Z,360
2017-08-26T07:41:52.194Z,370
2017-08-26T07:42:32.760Z,375
2017-08-26T07:43:13.256Z,365
2017-08-26T07:43:53.788Z,360
2017-08-26T07:44:34.316Z,360
2017-08-26T07:45:14.866Z,345
2017-08-26T07:45:55.398Z,350
2017-08-26T07:46:35.941Z,360
2017-08-26T07:47:16.485Z,380
2017-08-26T07:47:57.118Z,410
2017-08-26T07:48:37.581Z,430
2017-08-26T07:49:18.099Z,415
2017-08-26T07:49:58.650Z,475
2017-08-26T07:50:39.201Z,460
2017-08-26T07:51:19.740Z,405
2017-08-26T07:52:00.274Z,375
2017-08-26T07:52:40.818Z,335
2017-08-26T07:53:21.356Z,325
2017-08-26T07:54:01.903Z,305
2017-08-26T07:54:42.448Z,310
2017-08-26T07:55:22.993Z,320
2017-08-26T07:56:03.508Z,325
2017-08-26T07:56:44.040Z,320
2017-08-26T07:57:24.572Z,325
2017-08-26T07:58:05.118Z,350
2017-08-26T07:58:45.658Z,380
2017-08-26T07:59:26.204Z,410
2017-08-26T08:00:06.741Z,390
2017-08-26T08:00:47.281Z,385
2017-08-26T08:01:27.808Z,400
2017-08-26T08:02:08.357Z,450
2017-08-26T08:02:48.889Z,405
2017-08-26T08:03:29.428Z,365
2017-08-26T08:04:09.994Z,305
2017-08-26T08:04:50.553Z,285
2017-08-26T08:05:31.100Z,255
2017-08-26T08:06:11.638Z,240
2017-08-26T08:06:52.175Z,235
2017-08-26T08:07:32.722Z,225
2017-08-26T08:08:13.254Z,220
2017-08-26T08:08:53.799Z,220
2017-08-26T08:09:34.322Z,215
2017-08-26T08:10:14.857Z,220
2017-08-26T08:10:55.384Z,225
2017-08-26T08:11:35.924Z,220
2017-08-26T08:12:16.474Z,225
2017-08-26T08:12:57.016Z,230
2017-08-26T08:13:37.540Z,235
2017-08-26T08:14:18.071Z,235
2017-08-26T08:14:58.602Z,230
2017-08-26T08:15:39.154Z,230
2017-08-26T08:16:19.728Z,235
2017-08-26T08:17:00.249Z,250
2017-08-26T08:17:40.801Z,260
2017-08-26T08:18:21.352Z,270
2017-08-26T08:19:01.894Z,280
2017-08-26T08:19:42.431Z,280
2017-08-26T08:20:22.961Z,275
2017-08-26T08:21:03.499Z,275
2017-08-26T08:21:44.030Z,270
2017-08-26T08:22:24.572Z,280
2017-08-26T08:23:05.114Z,285
2017-08-26T08:23:45.650Z,280
2017-08-26T08:24:26.211Z,285
2017-08-26T08:25:06.758Z,280
2017-08-26T08:25:47.291Z,285
2017-08-26T08:26:27.832Z,290
2017-08-26T08:27:08.374Z,310
2017-08-26T08:27:48.890Z,305
2017-08-26T08:28:29.555Z,300
2017-08-26T08:29:10.150Z,295
2017-08-26T08:29:50.696Z,295
2017-08-26T08:30:31.238Z,310
2017-08-26T08:31:11.775Z,325
2017-08-26T08:31:52.308Z,350
2017-08-26T08:32:32.940Z,370
2017-08-26T08:33:13.622Z,380
2017-08-26T08:33:54.236Z,385
2017-08-26T08:34:34.803Z,390
2017-08-26T08:35:15.339Z,380
2017-08-26T08:35:55.882Z,370
2017-08-26T08:36:36.430Z,360
2017-08-26T08:37:16.969Z,360
2017-08-26T08:37:57.582Z,355
2017-08-26T08:38:38.132Z,350
2017-08-26T08:39:18.653Z,350
2017-08-26T08:39:59.192Z,350
2017-08-26T08:40:39.732Z,355
2017-08-26T08:41:20.308Z,365
2017-08-26T08:42:00.850Z,370
2017-08-26T08:42:41.369Z,375
2017-08-26T08:43:21.919Z,385
2017-08-26T08:44:02.468Z,395
2017-08-26T08:44:43.018Z,410
2017-08-26T08:45:23.561Z,435
2017-08-26T08:46:04.092Z,460
2017-08-26T08:46:44.632Z,480
2017-08-26T08:47:25.162Z,500
2017-08-26T08:48:05.804Z,535
2017-08-26T08:48:46.320Z,575
2017-08-26T08:49:26.868Z,575
2017-08-26T08:50:07.409Z,590
2017-08-26T08:50:47.942Z,600
2017-08-26T08:51:28.461Z,605
2017-08-26T08:52:09.007Z,600
2017-08-26T08:52:49.548Z,615
2017-08-26T08:53:30.108Z,650
2017-08-26T08:54:10.636Z,650
2017-08-26T08:54:51.182Z,640
2017-08-26T08:55:31.713Z,630
2017-08-26T08:56:12.280Z,625
2017-08-26T08:56:52.789Z,605
2017-08-26T08:57:33.363Z,585
2017-08-26T08:58:13.924Z,585
2017-08-26T08:58:54.453Z,585
2017-08-26T08:59:34.999Z,605
2017-08-26T09:00:15.534Z,880
2017-08-26T09:00:56.073Z,970
2017-08-26T09:01:36.608Z,1265
2017-08-26T09:02:17.159Z,725
2017-08-26T09:02:57.704Z,665
2017-08-26T09:03:38.277Z,650
2017-08-26T09:04:18.829Z,650
2017-08-26T09:04:59.369Z,625
2017-08-26T09:05:39.911Z,630
2017-08-26T09:06:20.448Z,625
2017-08-26T09:07:00.975Z,625
2017-08-26T09:07:41.492Z,650
2017-08-26T09:08:22.098Z,675
2017-08-26T09:09:02.630Z,685
2017-08-26T09:09:43.183Z,695
2017-08-26T09:10:23.796Z,700
2017-08-26T09:11:04.393Z,710
2017-08-26T09:11:45.060Z,705
2017-08-26T09:12:25.633Z,690
2017-08-26T09:13:06.164Z,700
2017-08-26T09:13:46.711Z,700
2017-08-26T09:14:27.262Z,690
2017-08-26T09:15:07.822Z,680
2017-08-26T09:15:48.395Z,675
2017-08-26T09:16:28.934Z,690
2017-08-26T09:17:09.471Z,690
2017-08-26T09:17:50.050Z,685
2017-08-26T09:18:30.699Z,695
2017-08-26T09:19:11.230Z,675
2017-08-26T09:19:51.755Z,670
2017-08-26T09:20:32.301Z,705
2017-08-26T09:21:12.888Z,680
2017-08-26T09:21:53.437Z,700
2017-08-26T09:22:33.975Z,695
2017-08-26T09:23:14.573Z,690
2017-08-26T09:23:55.171Z,650
2017-08-26T09:24:35.709Z,585
2017-08-26T09:25:16.260Z,565
2017-08-26T09:25:56.800Z,565
2017-08-26T09:26:37.349Z,610
2017-08-26T09:27:17.894Z,625
2017-08-26T09:27:58.442Z,575
2017-08-26T09:28:39.062Z,495
2017-08-26T09:29:19.608Z,430
2017-08-26T09:30:00.235Z,450
2017-08-26T09:30:40.819Z,490
2017-08-26T09:31:21.362Z,515
2017-08-26T09:32:01.895Z,565
2017-08-26T09:32:42.437Z,535
2017-08-26T09:33:23.022Z,455
2017-08-26T09:34:03.593Z,330
2017-08-26T09:34:44.276Z,260
2017-08-26T09:35:24.757Z,245
2017-08-26T09:36:05.277Z,260
2017-08-26T09:36:45.807Z,235
2017-08-26T09:37:26.350Z,230
2017-08-26T09:38:06.877Z,265
2017-08-26T09:38:47.418Z,300
2017-08-26T09:39:28.032Z,325
2017-08-26T09:40:08.568Z,335
2017-08-26T09:40:49.168Z,375